Etusivu
METAR-TAF:

METAR-TAF

Lentoasemat :

F 7 Såtenäs

Såtenäs, Ruotsi

Leveyspiiri: 58-26N, Pituuspiiri: 012-42E, korkeus merenpinnasta: 54 m

Tämänhetkinen sää

Tämä raportti tehtiin 31 minuuttia sitten, kello 10.50 UTC
Tuuli 3 kn kaakosta
Lämpötila -1°C
Kosteus 100%
Ilmanpaine 1029 hPa
Näkyvyys: 9000 m

METAR: ESIB 281050Z AUTO 13003KT 9000 OVC002/// M01/M01 Q1029

Aika: 12:21 (11:21 UTC)

Sääennuste

Tämä raportti tehtiin 6 minuuttia sitten, kello 11.15 UTC
Ennuste voimassa 27. päivästä klo 12 UTC - 27. päivään klo 16 UTC
Tuuli 3 kn etelästä
Näkyvyys 10 km tai enemmän
ei pilviä alle 1500 m:ssä eikä cumulonimbus-pilviä
Todennäköisyys 30%
27. päivästä klo 12 UTC - 27. päivään klo 16 UTC
Näkyvyys: 0500 m
200 ft:n korkeudessa
sumua

TAF: ESIB 271115Z 2712/2716 17003KT CAVOK PROB30 2712/2716 0500 FG VV002 RMK MIL

Säähavainnot ja -ennusteet yli 4000 lentoasemalta (METAR- ja TAF-raportit).

Käytössä olevat sääasemat on merkitty karttaan keltaisilla ja punaisilla pisteillä.

Aseta hiiri pisteen päälle nähdäksesi sääaseman nimen.

Klikkaa sitten nähdäksesi säähavainnot ja -ennusteet.

Kartan vaihtaminen: klikkaa mustalla rastilla varustettuja vihreitä pisteitä, niin voit zoomata sisään; viivalla varustettua vihreää pistettä, niin voit zoomata ulos tai vihreitä nuolia, niin pääset viereisille kartoille.


METAR-TAF: